Jsp Bora — V2CQ4 — position and weather

sailwx.info

Track history (hours):
 
Tides and Currents Weather Stations Pressure Air Temp Water Temp Dewpoint Dewpoint Depression Visibility Wind Speed Wind Dir Waves Ship Positions

Jsp Bora

Last reported at 2018-Apr-23 23:04 UTC. Time now 2018-Apr-24 01:11 UTC.
Position N 56°54' E 011°45'.

Length 148 m; draft 6.9 m.

Type: Cargo ship. MMSI: 305079000.

Date/timePositionNaut miles runAvg speedWind from/ knotsBaromVisibWave heightAir tempDewpointWater temp
2018-Apr-23 23:04N 56°54' E 011°45'1 8.6
2018-Apr-23 23:00N 56°55' E 011°45'4 8.3
2018-Apr-23 22:31N 56°59' E 011°43'4 8.6
2018-Apr-23 22:00N 57°03' E 011°40'4 8.6
2018-Apr-23 21:30N 57°07' E 011°37'4 7.9
2018-Apr-23 21:00N 57°11' E 011°35'4 7.4
2018-Apr-23 20:31N 57°14' E 011°33'4 7.3
2018-Apr-23 20:01N 57°17' E 011°30'4 7.5
2018-Apr-23 19:31N 57°21' E 011°28'4 7.8
2018-Apr-23 19:00N 57°25' E 011°26'4 7.5
2018-Apr-23 18:31N 57°28' E 011°23'4 7.5
2018-Apr-23 18:01N 57°31' E 011°18'4 7.5
2018-Apr-23 17:30N 57°33' E 011°13'4 7.6
2018-Apr-23 17:00N 57°36' E 011°07'4 8.0
2018-Apr-23 16:31N 57°38' E 011°02'4 8.2
2018-Apr-23 16:01N 57°41' E 010°56'4 8.5
2018-Apr-23 15:31N 57°44' E 010°51'4 8.6
2018-Apr-23 15:00N 57°47' E 010°44'4 7.9
2018-Apr-23 14:30N 57°49' E 010°38'4 8.5
2018-Apr-23 14:00N 57°49' E 010°30'5 9.1
2018-Apr-23 13:30N 57°50' E 010°22'4 9.0
2018-Apr-23 13:00N 57°50' E 010°13'5 9.2
2018-Apr-23 12:29N 57°51' E 010°04'4 9.3
2018-Apr-23 12:00N 57°51' E 009°56'5 9.3
2018-Apr-23 11:26N 57°52' E 009°46'4 9.4
2018-Apr-23 11:00N 57°52' E 009°39'5 8.8
2018-Apr-23 10:28N 57°53' E 009°30'20 8.5
2018-Apr-23 08:06N 57°55' E 008°52'1 8.9
2018-Apr-23 08:00N 57°55' E 008°50'5 8.8
2018-Apr-23 07:25N 57°57' E 008°41'4 8.9
2018-Apr-23 07:00N 57°58' E 008°35'4 8.8
2018-Apr-23 06:30N 57°59' E 008°27'4 8.9
2018-Apr-23 06:00N 58°01' E 008°19'4 8.4
2018-Apr-23 05:30N 58°02' E 008°11'4 7.8
2018-Apr-23 05:00N 58°04' E 008°05'5 9.6
2018-Apr-23 04:29N 58°08' E 007°59'0 0.9
2018-Apr-23 03:58N 58°08' E 007°60'0 0.0
2018-Apr-23 03:28N 58°08' E 007°60'0 0.0
2018-Apr-23 02:58N 58°08' E 007°60'0 0.0
2018-Apr-23 02:28N 58°08' E 007°60'0 0.0
2018-Apr-23 01:58N 58°08' E 007°60'0 0.0
2018-Apr-23 01:28N 58°08' E 007°60'0 0.0
2018-Apr-23 00:58N 58°08' E 007°60'0 0.0
2018-Apr-23 00:28N 58°08' E 007°60'0 0.0
2018-Apr-22 23:58N 58°08' E 007°60'0 0.0
2018-Apr-22 23:28N 58°08' E 007°60'0 0.0
2018-Apr-22 22:58N 58°08' E 007°60'0 0.0
2018-Apr-22 22:28N 58°08' E 007°60'0 0.0
2018-Apr-22 21:58N 58°08' E 007°60'0 0.0
2018-Apr-22 21:28N 58°08' E 007°60'0 0.0
2018-Apr-22 20:58N 58°08' E 007°60'0 0.3
2018-Apr-22 20:29N 58°08' E 007°59'3 6.3
2018-Apr-22 20:00N 58°06' E 008°03'611.3
2018-Apr-22 19:31N 58°03' E 008°12'816.2
2018-Apr-22 19:01N 58°03' E 008°27'815.6
2018-Apr-22 18:30N 58°04' E 008°42'714.4
2018-Apr-22 18:00N 58°07' E 008°54'713.6
2018-Apr-22 17:30N 58°12' E 009°02'713.8
2018-Apr-22 17:00N 58°18' E 009°11'714.1
2018-Apr-22 16:30N 58°23' E 009°20'714.7
2018-Apr-22 16:00N 58°29' E 009°29'714.4
2018-Apr-22 15:31N 58°34' E 009°38'713.8
2018-Apr-22 15:01N 58°38' E 009°48'713.4
2018-Apr-22 14:30N 58°42' E 009°58'713.7
2018-Apr-22 14:01N 58°47' E 010°09'713.7
2018-Apr-22 13:31N 58°51' E 010°19'713.7
2018-Apr-22 13:00N 58°55' E 010°29'713.7
2018-Apr-22 12:30N 58°60' E 010°40'713.1
2018-Apr-22 12:01N 59°02' E 010°52'4 7.4
2018-Apr-22 11:31N 59°03' E 010°58'713.0
2018-Apr-22 11:00N 59°10' E 010°57'1 1.7
2018-Apr-22 10:29N 59°11' E 010°57'0 0.0
2018-Apr-22 09:59N 59°11' E 010°57'0 0.0
2018-Apr-22 09:29N 59°11' E 010°57'0 0.0
2018-Apr-22 08:59N 59°11' E 010°57'0 0.0
2018-Apr-22 08:29N 59°11' E 010°57'0 0.0
2018-Apr-22 07:59N 59°11' E 010°57'0 0.0
2018-Apr-22 07:29N 59°11' E 010°57'0 0.0
2018-Apr-22 06:59N 59°11' E 010°57'0 0.0
2018-Apr-22 06:29N 59°11' E 010°57'0 0.0
2018-Apr-22 05:59N 59°11' E 010°57'0 0.0
2018-Apr-22 05:29N 59°11' E 010°57'0 0.0
2018-Apr-22 04:59N 59°11' E 010°57'0 0.1
2018-Apr-22 04:30N 59°11' E 010°57'3 6.1
2018-Apr-22 04:00N 59°08' E 010°58'713.2
2018-Apr-22 03:31N 59°01' E 010°58'713.4
2018-Apr-22 03:00N 59°04' E 010°46'714.5
2018-Apr-22 02:30N 59°10' E 010°38'714.8
2018-Apr-22 02:00N 59°18' E 010°36'713.2
2018-Apr-22 01:30N 59°24' E 010°37'2 3.7
2018-Apr-22 01:00N 59°26' E 010°39'0 0.0
2018-Apr-22 00:30N 59°26' E 010°39'0 0.0
2018-Apr-22 00:00N 59°26' E 010°39'0 0.0
2018-Apr-21 23:30N 59°26' E 010°39'0 0.0
2018-Apr-21 23:00N 59°26' E 010°39'0 0.0
2018-Apr-21 22:30N 59°26' E 010°39'0 0.0
2018-Apr-21 22:00N 59°26' E 010°39'0 0.0
2018-Apr-21 21:30N 59°26' E 010°39'0 0.0
2018-Apr-21 21:00N 59°26' E 010°39'0 0.0
2018-Apr-21 20:30N 59°26' E 010°39'0 0.0
2018-Apr-21 20:00N 59°26' E 010°39'0 0.0
2018-Apr-21 19:30N 59°26' E 010°39'0 0.0
2018-Apr-21 19:00N 59°26' E 010°39'0 0.0
2018-Apr-21 18:30N 59°26' E 010°39'0 0.0
2018-Apr-21 18:00N 59°26' E 010°39'0 0.0
2018-Apr-21 17:30N 59°26' E 010°39'0 0.0
2018-Apr-21 17:00N 59°26' E 010°39'0 0.0
2018-Apr-21 16:30N 59°26' E 010°39'0 0.0
2018-Apr-21 16:00N 59°26' E 010°39'0 0.0
2018-Apr-21 15:30N 59°26' E 010°39'0 0.0
2018-Apr-21 15:00N 59°26' E 010°39'0 0.0
2018-Apr-21 14:30N 59°26' E 010°39'0 0.0
2018-Apr-21 14:00N 59°26' E 010°39'0 0.0
2018-Apr-21 13:30N 59°26' E 010°39'0 0.0
2018-Apr-21 13:00N 59°26' E 010°39'1 1.8
2018-Apr-21 12:30N 59°25' E 010°39'713.1
2018-Apr-21 12:00N 59°18' E 010°37'714.5
2018-Apr-21 11:31N 59°11' E 010°39'713.4
2018-Apr-21 11:00N 59°05' E 010°34'4 8.6
2018-Apr-21 10:30N 59°01' E 010°36'4 8.3
2018-Apr-21 10:00N 58°57' E 010°33'510.7
2018-Apr-21 09:30N 58°53' E 010°27'510.8
2018-Apr-21 09:00N 58°48' E 010°21'510.8
2018-Apr-21 08:30N 58°44' E 010°15'510.9
2018-Apr-21 08:00N 58°40' E 010°08'510.8
2018-Apr-21 07:30N 58°35' E 010°02'510.8
2018-Apr-21 07:00N 58°31' E 009°56'2012.0
2018-Apr-21 05:22N 58°15' E 009°35'513.7
2018-Apr-21 04:58N 58°10' E 009°29'913.8
2018-Apr-21 04:19N 58°03' E 009°19'513.8
2018-Apr-21 03:58N 57°59' E 009°14'613.9
2018-Apr-21 03:30N 57°53' E 009°08'2414.2
2018-Apr-21 01:49N 57°33' E 008°45'514.5
2018-Apr-21 01:29N 57°29' E 008°40'714.2
2018-Apr-21 00:59N 57°23' E 008°33'713.9
2018-Apr-21 00:31N 57°17' E 008°26'713.7
2018-Apr-21 00:00N 57°12' E 008°19'813.9
2018-Apr-20 23:28N 57°05' E 008°11'714.0
2018-Apr-20 22:58N 56°59' E 008°04'713.9
2018-Apr-20 22:29N 56°53' E 007°59'714.1
2018-Apr-20 21:59N 56°47' E 007°52'714.8
2018-Apr-20 21:30N 56°41' E 007°46'4715.2
2018-Apr-20 18:23N 55°59' E 007°09'1215.1
2018-Apr-20 17:36N 55°47' E 007°04'315.4
2018-Apr-20 17:24N 55°44' E 007°04'615.5
2018-Apr-20 17:00N 55°38' E 007°04'815.3
2018-Apr-20 16:30N 55°30' E 007°04'815.3
2018-Apr-20 16:00N 55°23' E 007°03'815.2
2018-Apr-20 15:31N 55°15' E 007°03'815.2
2018-Apr-20 15:00N 55°07' E 007°03'815.2
2018-Apr-20 14:30N 54°60' E 007°03'715.0
2018-Apr-20 14:00N 54°52' E 007°04'714.9
2018-Apr-20 13:30N 54°45' E 007°04'714.2
2018-Apr-20 13:00N 54°38' E 007°05'714.3
2018-Apr-20 12:30N 54°32' E 007°11'1414.1
2018-Apr-20 11:31N 54°19' E 007°22'014.1
2018-Apr-20 11:30N 54°19' E 007°23'1214.1
2018-Apr-20 10:38N 54°08' E 007°32'314.2
2018-Apr-20 10:27N 54°06' E 007°34'1314.4
2018-Apr-20 09:32N 53°54' E 007°45'612.9
2018-Apr-20 09:04N 53°52' E 007°54'1 9.9
2018-Apr-20 09:01N 53°52' E 007°55'814.4
2018-Apr-20 08:29N 53°49' E 008°07'815.8
2018-Apr-20 08:00N 53°44' E 008°16'816.9
2018-Apr-20 07:30N 53°38' E 008°26'4 7.8
2018-Apr-20 07:00N 53°35' E 008°31'0 0.0
2018-Apr-20 06:30N 53°35' E 008°31'0 0.0
2018-Apr-20 06:00N 53°35' E 008°31'0 0.0
2018-Apr-20 05:30N 53°35' E 008°31'0 0.0
2018-Apr-20 05:00N 53°35' E 008°31'0 0.0
2018-Apr-20 04:30N 53°35' E 008°31'0 0.0
2018-Apr-20 04:00N 53°35' E 008°31'0 0.0
2018-Apr-20 03:30N 53°35' E 008°31'0 0.0
2018-Apr-20 03:00N 53°35' E 008°31'0 0.0
2018-Apr-20 02:30N 53°35' E 008°31'0 0.0
2018-Apr-20 02:00N 53°35' E 008°31'0 0.0
2018-Apr-20 01:30N 53°35' E 008°31'0 0.0
2018-Apr-20 01:00N 53°35' E 008°31'0 0.0
2018-Apr-20 00:30N 53°35' E 008°31'0 0.0
2018-Apr-20 00:00N 53°35' E 008°31'0 0.0
2018-Apr-19 23:30N 53°35' E 008°31'0 0.0
2018-Apr-19 23:00N 53°35' E 008°31'0 0.0
2018-Apr-19 22:30N 53°35' E 008°31'0 0.0
2018-Apr-19 22:00N 53°35' E 008°31'0 0.0
2018-Apr-19 21:30N 53°35' E 008°31'0 0.0
2018-Apr-19 20:57N 53°35' E 008°31'0 0.0
2018-Apr-19 20:30N 53°35' E 008°31'0 0.0
2018-Apr-19 20:00N 53°35' E 008°31'0 0.0
2018-Apr-19 19:30N 53°35' E 008°31'0 0.0
2018-Apr-19 19:00N 53°35' E 008°31'0 0.0
2018-Apr-19 18:30N 53°35' E 008°31'0 0.0
2018-Apr-19 18:00N 53°35' E 008°31'0 0.0
2018-Apr-19 17:30N 53°35' E 008°31'0 0.0
2018-Apr-19 16:57N 53°35' E 008°31'0 0.0
2018-Apr-19 16:30N 53°35' E 008°31'0 0.0
2018-Apr-19 15:59N 53°35' E 008°31'0 0.0
2018-Apr-19 15:29N 53°35' E 008°31'0 0.0
2018-Apr-19 14:59N 53°35' E 008°31'0 0.0
2018-Apr-19 14:29N 53°35' E 008°31'0 0.1
2018-Apr-19 13:59N 53°35' E 008°31'0 0.1
2018-Apr-19 13:29N 53°35' E 008°31'0 0.0
2018-Apr-19 12:59N 53°35' E 008°31'0 0.0
2018-Apr-19 12:29N 53°35' E 008°31'0 0.0
2018-Apr-19 11:59N 53°35' E 008°31'0 0.0
2018-Apr-19 11:29N 53°35' E 008°31'0 0.0
2018-Apr-19 10:59N 53°35' E 008°31'0 0.0
2018-Apr-19 10:26N 53°35' E 008°31'0 0.0
2018-Apr-19 09:59N 53°35' E 008°31'0 0.1
2018-Apr-19 09:30N 53°35' E 008°31'2 4.8
2018-Apr-19 09:00N 53°37' E 008°28'612.6
2018-Apr-19 08:30N 53°41' E 008°21'613.0
2018-Apr-19 08:00N 53°45' E 008°12'612.4
2018-Apr-19 07:30N 53°50' E 008°05'612.2
2018-Apr-19 07:00N 53°52' E 007°55'3 5.9
2018-Apr-19 06:30N 53°54' E 007°52'0 0.0
2018-Apr-19 05:58N 53°54' E 007°52'0 0.0
2018-Apr-19 05:28N 53°54' E 007°52'0 0.0
2018-Apr-19 04:58N 53°54' E 007°52'0 0.0
2018-Apr-19 04:25N 53°54' E 007°52'0 0.0
2018-Apr-19 03:58N 53°54' E 007°52'0 0.0
2018-Apr-19 03:25N 53°54' E 007°52'0 0.0
2018-Apr-19 02:58N 53°54' E 007°52'0 0.0
2018-Apr-19 02:25N 53°54' E 007°52'0 0.0
2018-Apr-19 01:58N 53°54' E 007°52'0 0.0
2018-Apr-19 01:25N 53°54' E 007°52'0 0.2
2018-Apr-19 00:58N 53°54' E 007°52'0 0.1
2018-Apr-18 23:46N 53°54' E 007°52'0 0.0
2018-Apr-18 22:46N 53°54' E 007°52'0 0.0
2018-Apr-18 22:22N 53°54' E 007°52'0 0.0
2018-Apr-18 21:58N 53°54' E 007°52'0 0.0
2018-Apr-18 21:28N 53°54' E 007°52'0 0.1
2018-Apr-18 19:55N 53°54' E 007°52'0 0.0
2018-Apr-18 10:13N 53°54' E 007°52'0 0.0
2018-Apr-18 09:49N 53°54' E 007°52'0 0.0
2018-Apr-18 09:13N 53°54' E 007°52'0 0.0
2018-Apr-18 08:49N 53°54' E 007°52'0 0.1
2018-Apr-18 08:28N 53°54' E 007°52'0 0.1
2018-Apr-18 07:43N 53°54' E 007°52'0 0.1
2018-Apr-18 06:52N 53°54' E 007°52'0 0.1
2018-Apr-18 06:16N 53°54' E 007°52'0 0.0
2018-Apr-18 05:58N 53°54' E 007°52'0 0.0
2018-Apr-18 05:28N 53°54' E 007°52'0 0.0
2018-Apr-18 04:58N 53°54' E 007°52'0 0.0
2018-Apr-18 04:25N 53°54' E 007°52'0 0.0
2018-Apr-18 03:58N 53°54' E 007°52'0 0.0
2018-Apr-18 03:28N 53°54' E 007°52'0 0.0
2018-Apr-18 02:55N 53°54' E 007°52'0 0.0
2018-Apr-18 02:28N 53°54' E 007°52'0 0.1
2018-Apr-18 01:43N 53°54' E 007°52'0 0.1
2018-Apr-18 01:22N 53°54' E 007°52'0 0.1
2018-Apr-18 00:55N 53°54' E 007°52'0 0.1
2018-Apr-18 00:19N 53°54' E 007°52'0 0.1
2018-Apr-17 23:55N 53°54' E 007°52'0 0.2
2018-Apr-17 23:28N 53°54' E 007°52'0 0.3
2018-Apr-17 22:58N 53°54' E 007°52'1 2.3
2018-Apr-17 22:29N 53°55' E 007°50'4711.5
2018-Apr-17 18:25N 54°34' E 007°08'614.0
2018-Apr-17 18:00N 54°40' E 007°04'714.1
2018-Apr-17 17:31N 54°47' E 007°03'713.8
2018-Apr-17 17:00N 54°53' E 007°03'713.7
2018-Apr-17 16:30N 55°00' E 007°03'713.8
2018-Apr-17 16:00N 55°07' E 007°03'713.7
2018-Apr-17 15:30N 55°14' E 007°03'713.7
2018-Apr-17 15:01N 55°21' E 007°03'612.2
2018-Apr-17 14:30N 55°27' E 007°03'5 9.9
2018-Apr-17 14:00N 55°32' E 007°03'510.0
2018-Apr-17 13:31N 55°37' E 007°03'510.5
2018-Apr-17 13:00N 55°42' E 007°03'510.5
2018-Apr-17 12:30N 55°48' E 007°04'510.7
2018-Apr-17 12:00N 55°53' E 007°04'510.8
2018-Apr-17 11:30N 55°58' E 007°06'610.7
2018-Apr-17 10:58N 56°04' E 007°08'510.9
2018-Apr-17 10:30N 56°09' E 007°11'610.7
2018-Apr-17 09:59N 56°14' E 007°13'510.8
2018-Apr-17 09:29N 56°19' E 007°16'910.6
2018-Apr-17 08:35N 56°28' E 007°20'110.6
2018-Apr-17 08:30N 56°29' E 007°20'910.6
2018-Apr-17 07:41N 56°38' E 007°24'210.5
2018-Apr-17 07:30N 56°40' E 007°25'6610.7
2018-Apr-17 01:20N 57°43' E 007°56'411.8
2018-Apr-17 01:00N 57°47' E 007°58'611.6
2018-Apr-17 00:30N 57°53' E 008°00'611.4
2018-Apr-17 00:00N 57°58' E 008°03'511.0
2018-Apr-16 23:30N 58°04' E 008°05'510.6
2018-Apr-16 23:00N 58°08' E 007°60'1 1.1
2018-Apr-16 22:28N 58°08' E 007°59'0 0.0
2018-Apr-16 21:58N 58°08' E 007°59'0 0.0
2018-Apr-16 21:28N 58°08' E 007°59'0 0.0
2018-Apr-16 20:58N 58°08' E 007°59'0 0.0
2018-Apr-16 20:28N 58°08' E 007°59'0 0.0
2018-Apr-16 19:58N 58°08' E 007°59'0 0.0
2018-Apr-16 19:28N 58°08' E 007°59'0 0.0
2018-Apr-16 18:58N 58°08' E 007°59'0 0.0
2018-Apr-16 18:28N 58°08' E 007°59'0 0.0
2018-Apr-16 17:58N 58°08' E 007°59'0 0.0
2018-Apr-16 17:28N 58°08' E 007°59'0 0.0
2018-Apr-16 16:58N 58°08' E 007°59'0 0.0
2018-Apr-16 16:28N 58°08' E 007°59'0 0.0
2018-Apr-16 15:58N 58°08' E 007°59'0 0.0
2018-Apr-16 15:28N 58°08' E 007°59'0 0.0
2018-Apr-16 14:58N 58°08' E 007°59'0 0.0
2018-Apr-16 14:28N 58°08' E 007°59'0 0.0
2018-Apr-16 13:58N 58°08' E 007°59'0 0.0
2018-Apr-16 13:28N 58°08' E 007°59'1 1.2
2018-Apr-16 13:00N 58°08' E 007°59'510.0
2018-Apr-16 12:30N 58°04' E 008°06'612.3
2018-Apr-16 12:00N 58°03' E 008°17'713.5
2018-Apr-16 11:30N 58°03' E 008°30'5 9.9
2018-Apr-16 11:00N 58°02' E 008°39'30 9.1
2018-Apr-16 07:41N 58°23' E 009°20'2 9.5
2018-Apr-16 07:30N 58°25' E 009°23'5 9.5
2018-Apr-16 07:00N 58°28' E 009°28'5 9.7
2018-Apr-16 06:30N 58°32' E 009°34'5 9.4
2018-Apr-16 05:58N 58°37' E 009°38'4 9.4
2018-Apr-16 05:30N 58°41' E 009°40'5 9.8
2018-Apr-16 05:00N 58°46' E 009°42'5 9.4
2018-Apr-16 04:30N 58°50' E 009°44'510.5
2018-Apr-16 04:00N 58°55' E 009°47'510.7
2018-Apr-16 03:31N 58°55' E 009°57'611.6
2018-Apr-16 03:01N 58°59' E 010°05'3 6.1
2018-Apr-16 02:29N 59°02' E 010°02'0 0.0
2018-Apr-16 01:59N 59°02' E 010°02'0 0.0
2018-Apr-16 01:29N 59°02' E 010°02'0 0.0
2018-Apr-16 00:59N 59°02' E 010°02'0 0.0
2018-Apr-16 00:29N 59°02' E 010°02'0 0.0
2018-Apr-15 23:59N 59°02' E 010°02'0 0.0
2018-Apr-15 23:29N 59°02' E 010°02'0 0.0
2018-Apr-15 22:59N 59°02' E 010°02'0 0.0
2018-Apr-15 22:29N 59°02' E 010°02'0 0.0
2018-Apr-15 21:59N 59°02' E 010°02'0 0.0
2018-Apr-15 21:29N 59°02' E 010°02'0 0.0
2018-Apr-15 20:59N 59°02' E 010°02'0 0.0
2018-Apr-15 20:29N 59°02' E 010°02'0 0.0
2018-Apr-15 19:59N 59°02' E 010°02'0 0.0
2018-Apr-15 19:29N 59°02' E 010°02'0 0.0
2018-Apr-15 18:59N 59°02' E 010°02'0 0.0
2018-Apr-15 18:29N 59°02' E 010°02'0 0.0
2018-Apr-15 17:59N 59°02' E 010°02'0 0.0
2018-Apr-15 17:29N 59°02' E 010°02'0 0.0
2018-Apr-15 16:59N 59°02' E 010°02'0 0.0
2018-Apr-15 16:29N 59°02' E 010°02'0 0.0
2018-Apr-15 15:59N 59°02' E 010°02'0 0.0
2018-Apr-15 15:29N 59°02' E 010°02'0 0.0
2018-Apr-15 14:59N 59°02' E 010°02'0 0.0
2018-Apr-15 14:30N 59°02' E 010°02'1 2.6
2018-Apr-15 14:01N 59°01' E 010°03'611.8
2018-Apr-15 13:30N 58°57' E 010°12'714.7
2018-Apr-15 13:00N 58°58' E 010°26'815.1
2018-Apr-15 12:30N 59°01' E 010°40'714.8
2018-Apr-15 12:00N 59°01' E 010°54'611.2
2018-Apr-15 11:31N 59°06' E 010°58'5 8.9
2018-Apr-15 10:59N 59°11' E 010°57'0 0.1
2018-Apr-15 10:29N 59°11' E 010°57'0 0.0
2018-Apr-15 09:59N 59°11' E 010°57'0 0.0
2018-Apr-15 09:29N 59°11' E 010°57'0 0.0
2018-Apr-15 08:59N 59°11' E 010°57'0 0.0
2018-Apr-15 08:29N 59°11' E 010°57'0 0.0
2018-Apr-15 08:00N 59°11' E 010°57'0 0.0
2018-Apr-15 07:30N 59°11' E 010°57'0 0.0
2018-Apr-15 07:00N 59°11' E 010°57'0 0.0
2018-Apr-15 06:30N 59°11' E 010°57'0 0.0
2018-Apr-15 06:00N 59°11' E 010°57'0 0.0
2018-Apr-15 05:30N 59°11' E 010°57'0 0.0
2018-Apr-15 05:00N 59°11' E 010°57'0 0.0
2018-Apr-15 04:30N 59°11' E 010°57'0 0.0
2018-Apr-15 04:00N 59°11' E 010°57'0 0.0
2018-Apr-15 03:30N 59°11' E 010°57'0 0.0
2018-Apr-15 03:00N 59°11' E 010°57'0 0.0
2018-Apr-15 02:30N 59°11' E 010°57'0 0.0
2018-Apr-15 02:00N 59°11' E 010°57'0 0.0
2018-Apr-15 01:30N 59°11' E 010°57'0 0.0
2018-Apr-15 01:00N 59°11' E 010°57'0 0.0
2018-Apr-15 00:30N 59°11' E 010°57'0 0.0
2018-Apr-15 00:00N 59°11' E 010°57'0 0.0
2018-Apr-14 23:30N 59°11' E 010°57'0 0.0
2018-Apr-14 23:00N 59°11' E 010°57'0 0.0
2018-Apr-14 22:30N 59°11' E 010°57'0 0.0
2018-Apr-14 22:00N 59°11' E 010°57'0 0.0
2018-Apr-14 21:30N 59°11' E 010°57'0 0.0
2018-Apr-14 21:00N 59°11' E 010°57'0 0.0
2018-Apr-14 20:30N 59°11' E 010°57'2 4.5
2018-Apr-14 20:00N 59°09' E 010°58'611.1
2018-Apr-14 19:30N 59°03' E 010°58'4 8.5
2018-Apr-14 19:00N 59°03' E 010°50'713.8
2018-Apr-14 18:31N 59°09' E 010°46'714.2
2018-Apr-14 18:00N 59°16' E 010°42'713.3
2018-Apr-14 17:30N 59°23' E 010°38'3 5.2
2018-Apr-14 16:55N 59°26' E 010°39'0 0.0
2018-Apr-14 16:25N 59°26' E 010°39'0 0.0
2018-Apr-14 15:55N 59°26' E 010°39'0 0.0
2018-Apr-14 15:25N 59°26' E 010°39'0 0.0
2018-Apr-14 14:55N 59°26' E 010°39'0 0.0
2018-Apr-14 14:25N 59°26' E 010°39'0 0.0
2018-Apr-14 13:55N 59°26' E 010°39'0 0.0
2018-Apr-14 13:25N 59°26' E 010°39'0 0.0
2018-Apr-14 12:55N 59°26' E 010°39'0 0.0
2018-Apr-14 12:25N 59°26' E 010°39'0 0.0
2018-Apr-14 11:55N 59°26' E 010°39'0 0.0
2018-Apr-14 11:25N 59°26' E 010°39'0 0.0
2018-Apr-14 11:00N 59°26' E 010°39'0 0.0
2018-Apr-14 10:30N 59°26' E 010°39'0 0.0
2018-Apr-14 10:00N 59°26' E 010°39'0 0.0
2018-Apr-14 09:30N 59°26' E 010°39'0 0.0
2018-Apr-14 09:00N 59°26' E 010°39'0 0.2
2018-Apr-14 08:30N 59°26' E 010°39'2 3.3
2018-Apr-14 08:00N 59°24' E 010°37'611.5
2018-Apr-14 07:31N 59°19' E 010°37'714.5
2018-Apr-14 07:01N 59°11' E 010°39'714.0
2018-Apr-14 06:30N 59°05' E 010°44'4 7.8
2018-Apr-14 06:00N 59°01' E 010°44'611.0
2018-Apr-14 05:30N 58°57' E 010°36'611.9
2018-Apr-14 05:00N 58°53' E 010°28'713.4
2018-Apr-14 04:30N 58°47' E 010°20'713.9
2018-Apr-14 04:00N 58°42' E 010°12'713.7
2018-Apr-14 03:30N 58°36' E 010°04'713.6
2018-Apr-14 03:01N 58°31' E 009°56'714.0
2018-Apr-14 02:30N 58°25' E 009°49'4313.9
2018-Apr-13 23:26N 57°51' E 009°00'  
Track history (hours):
 
Tides and Currents Weather Stations Pressure Air Temp Water Temp Dewpoint Dewpoint Depression Visibility Wind Speed Wind Dir Waves Ship Positions

Jsp Bora

Last reported at 2018-Apr-23 23:04 UTC. Time now 2018-Apr-24 01:11 UTC.
Position N 56°54' E 011°45'.

Length 148 m; draft 6.9 m.

Type: Cargo ship. MMSI: 305079000.

Date/timePositionNaut miles runAvg speedWind from/ knotsBaromVisibWave heightAir tempDewpointWater temp
2018-Apr-23 23:04N 56°54' E 011°45'1 8.6
2018-Apr-23 23:00N 56°55' E 011°45'4 8.3
2018-Apr-23 22:31N 56°59' E 011°43'4 8.6
2018-Apr-23 22:00N 57°03' E 011°40'4 8.6
2018-Apr-23 21:30N 57°07' E 011°37'4 7.9
2018-Apr-23 21:00N 57°11' E 011°35'4 7.4
2018-Apr-23 20:31N 57°14' E 011°33'4 7.3
2018-Apr-23 20:01N 57°17' E 011°30'4 7.5
2018-Apr-23 19:31N 57°21' E 011°28'4 7.8
2018-Apr-23 19:00N 57°25' E 011°26'4 7.5
2018-Apr-23 18:31N 57°28' E 011°23'4 7.5
2018-Apr-23 18:01N 57°31' E 011°18'4 7.5
2018-Apr-23 17:30N 57°33' E 011°13'4 7.6
2018-Apr-23 17:00N 57°36' E 011°07'4 8.0
2018-Apr-23 16:31N 57°38' E 011°02'4 8.2
2018-Apr-23 16:01N 57°41' E 010°56'4 8.5
2018-Apr-23 15:31N 57°44' E 010°51'4 8.6
2018-Apr-23 15:00N 57°47' E 010°44'4 7.9
2018-Apr-23 14:30N 57°49' E 010°38'4 8.5
2018-Apr-23 14:00N 57°49' E 010°30'5 9.1
2018-Apr-23 13:30N 57°50' E 010°22'4 9.0
2018-Apr-23 13:00N 57°50' E 010°13'5 9.2
2018-Apr-23 12:29N 57°51' E 010°04'4 9.3
2018-Apr-23 12:00N 57°51' E 009°56'5 9.3
2018-Apr-23 11:26N 57°52' E 009°46'4 9.4
2018-Apr-23 11:00N 57°52' E 009°39'5 8.8
2018-Apr-23 10:28N 57°53' E 009°30'20 8.5
2018-Apr-23 08:06N 57°55' E 008°52'1 8.9
2018-Apr-23 08:00N 57°55' E 008°50'5 8.8
2018-Apr-23 07:25N 57°57' E 008°41'4 8.9
2018-Apr-23 07:00N 57°58' E 008°35'4 8.8
2018-Apr-23 06:30N 57°59' E 008°27'4 8.9
2018-Apr-23 06:00N 58°01' E 008°19'4 8.4
2018-Apr-23 05:30N 58°02' E 008°11'4 7.8
2018-Apr-23 05:00N 58°04' E 008°05'5 9.6
2018-Apr-23 04:29N 58°08' E 007°59'0 0.9
2018-Apr-23 03:58N 58°08' E 007°60'0 0.0
2018-Apr-23 03:28N 58°08' E 007°60'0 0.0
2018-Apr-23 02:58N 58°08' E 007°60'0 0.0
2018-Apr-23 02:28N 58°08' E 007°60'0 0.0
2018-Apr-23 01:58N 58°08' E 007°60'0 0.0
2018-Apr-23 01:28N 58°08' E 007°60'0 0.0
2018-Apr-23 00:58N 58°08' E 007°60'0 0.0
2018-Apr-23 00:28N 58°08' E 007°60'0 0.0
2018-Apr-22 23:58N 58°08' E 007°60'0 0.0
2018-Apr-22 23:28N 58°08' E 007°60'0 0.0
2018-Apr-22 22:58N 58°08' E 007°60'0 0.0
2018-Apr-22 22:28N 58°08' E 007°60'0 0.0
2018-Apr-22 21:58N 58°08' E 007°60'0 0.0
2018-Apr-22 21:28N 58°08' E 007°60'0 0.0
2018-Apr-22 20:58N 58°08' E 007°60'0 0.3
2018-Apr-22 20:29N 58°08' E 007°59'3 6.3
2018-Apr-22 20:00N 58°06' E 008°03'611.3
2018-Apr-22 19:31N 58°03' E 008°12'816.2
2018-Apr-22 19:01N 58°03' E 008°27'815.6
2018-Apr-22 18:30N 58°04' E 008°42'714.4
2018-Apr-22 18:00N 58°07' E 008°54'713.6
2018-Apr-22 17:30N 58°12' E 009°02'713.8
2018-Apr-22 17:00N 58°18' E 009°11'714.1
2018-Apr-22 16:30N 58°23' E 009°20'714.7
2018-Apr-22 16:00N 58°29' E 009°29'714.4
2018-Apr-22 15:31N 58°34' E 009°38'713.8
2018-Apr-22 15:01N 58°38' E 009°48'713.4
2018-Apr-22 14:30N 58°42' E 009°58'713.7
2018-Apr-22 14:01N 58°47' E 010°09'713.7
2018-Apr-22 13:31N 58°51' E 010°19'713.7
2018-Apr-22 13:00N 58°55' E 010°29'713.7
2018-Apr-22 12:30N 58°60' E 010°40'713.1
2018-Apr-22 12:01N 59°02' E 010°52'4 7.4
2018-Apr-22 11:31N 59°03' E 010°58'713.0
2018-Apr-22 11:00N 59°10' E 010°57'1 1.7
2018-Apr-22 10:29N 59°11' E 010°57'0 0.0
2018-Apr-22 09:59N 59°11' E 010°57'0 0.0
2018-Apr-22 09:29N 59°11' E 010°57'0 0.0
2018-Apr-22 08:59N 59°11' E 010°57'0 0.0
2018-Apr-22 08:29N 59°11' E 010°57'0 0.0
2018-Apr-22 07:59N 59°11' E 010°57'0 0.0
2018-Apr-22 07:29N 59°11' E 010°57'0 0.0
2018-Apr-22 06:59N 59°11' E 010°57'0 0.0
2018-Apr-22 06:29N 59°11' E 010°57'0 0.0
2018-Apr-22 05:59N 59°11' E 010°57'0 0.0
2018-Apr-22 05:29N 59°11' E 010°57'0 0.0
2018-Apr-22 04:59N 59°11' E 010°57'0 0.1
2018-Apr-22 04:30N 59°11' E 010°57'3 6.1
2018-Apr-22 04:00N 59°08' E 010°58'713.2
2018-Apr-22 03:31N 59°01' E 010°58'713.4
2018-Apr-22 03:00N 59°04' E 010°46'714.5
2018-Apr-22 02:30N 59°10' E 010°38'714.8
2018-Apr-22 02:00N 59°18' E 010°36'713.2
2018-Apr-22 01:30N 59°24' E 010°37'2 3.7
2018-Apr-22 01:00N 59°26' E 010°39'0 0.0
2018-Apr-22 00:30N 59°26' E 010°39'0 0.0
2018-Apr-22 00:00N 59°26' E 010°39'0 0.0
2018-Apr-21 23:30N 59°26' E 010°39'0 0.0
2018-Apr-21 23:00N 59°26' E 010°39'0 0.0
2018-Apr-21 22:30N 59°26' E 010°39'0 0.0
2018-Apr-21 22:00N 59°26' E 010°39'0 0.0
2018-Apr-21 21:30N 59°26' E 010°39'0 0.0
2018-Apr-21 21:00N 59°26' E 010°39'0 0.0
2018-Apr-21 20:30N 59°26' E 010°39'0 0.0
2018-Apr-21 20:00N 59°26' E 010°39'0 0.0
2018-Apr-21 19:30N 59°26' E 010°39'0 0.0
2018-Apr-21 19:00N 59°26' E 010°39'0 0.0
2018-Apr-21 18:30N 59°26' E 010°39'0 0.0
2018-Apr-21 18:00N 59°26' E 010°39'0 0.0
2018-Apr-21 17:30N 59°26' E 010°39'0 0.0
2018-Apr-21 17:00N 59°26' E 010°39'0 0.0
2018-Apr-21 16:30N 59°26' E 010°39'0 0.0
2018-Apr-21 16:00N 59°26' E 010°39'0 0.0
2018-Apr-21 15:30N 59°26' E 010°39'0 0.0
2018-Apr-21 15:00N 59°26' E 010°39'0 0.0
2018-Apr-21 14:30N 59°26' E 010°39'0 0.0
2018-Apr-21 14:00N 59°26' E 010°39'0 0.0
2018-Apr-21 13:30N 59°26' E 010°39'0 0.0
2018-Apr-21 13:00N 59°26' E 010°39'1 1.8
2018-Apr-21 12:30N 59°25' E 010°39'713.1
2018-Apr-21 12:00N 59°18' E 010°37'714.5
2018-Apr-21 11:31N 59°11' E 010°39'713.4
2018-Apr-21 11:00N 59°05' E 010°34'4 8.6
2018-Apr-21 10:30N 59°01' E 010°36'4 8.3
2018-Apr-21 10:00N 58°57' E 010°33'510.7
2018-Apr-21 09:30N 58°53' E 010°27'510.8
2018-Apr-21 09:00N 58°48' E 010°21'510.8
2018-Apr-21 08:30N 58°44' E 010°15'510.9
2018-Apr-21 08:00N 58°40' E 010°08'510.8
2018-Apr-21 07:30N 58°35' E 010°02'510.8
2018-Apr-21 07:00N 58°31' E 009°56'2012.0
2018-Apr-21 05:22N 58°15' E 009°35'513.7
2018-Apr-21 04:58N 58°10' E 009°29'913.8
2018-Apr-21 04:19N 58°03' E 009°19'513.8
2018-Apr-21 03:58N 57°59' E 009°14'613.9
2018-Apr-21 03:30N 57°53' E 009°08'2414.2
2018-Apr-21 01:49N 57°33' E 008°45'514.5
2018-Apr-21 01:29N 57°29' E 008°40'714.2
2018-Apr-21 00:59N 57°23' E 008°33'713.9
2018-Apr-21 00:31N 57°17' E 008°26'713.7
2018-Apr-21 00:00N 57°12' E 008°19'813.9
2018-Apr-20 23:28N 57°05' E 008°11'714.0
2018-Apr-20 22:58N 56°59' E 008°04'713.9
2018-Apr-20 22:29N 56°53' E 007°59'714.1
2018-Apr-20 21:59N 56°47' E 007°52'714.8
2018-Apr-20 21:30N 56°41' E 007°46'4715.2
2018-Apr-20 18:23N 55°59' E 007°09'1215.1
2018-Apr-20 17:36N 55°47' E 007°04'315.4
2018-Apr-20 17:24N 55°44' E 007°04'615.5
2018-Apr-20 17:00N 55°38' E 007°04'815.3
2018-Apr-20 16:30N 55°30' E 007°04'815.3
2018-Apr-20 16:00N 55°23' E 007°03'815.2
2018-Apr-20 15:31N 55°15' E 007°03'815.2
2018-Apr-20 15:00N 55°07' E 007°03'815.2
2018-Apr-20 14:30N 54°60' E 007°03'715.0
2018-Apr-20 14:00N 54°52' E 007°04'714.9
2018-Apr-20 13:30N 54°45' E 007°04'714.2
2018-Apr-20 13:00N 54°38' E 007°05'714.3
2018-Apr-20 12:30N 54°32' E 007°11'1414.1
2018-Apr-20 11:31N 54°19' E 007°22'014.1
2018-Apr-20 11:30N 54°19' E 007°23'1214.1
2018-Apr-20 10:38N 54°08' E 007°32'314.2
2018-Apr-20 10:27N 54°06' E 007°34'1314.4
2018-Apr-20 09:32N 53°54' E 007°45'612.9
2018-Apr-20 09:04N 53°52' E 007°54'1 9.9
2018-Apr-20 09:01N 53°52' E 007°55'814.4
2018-Apr-20 08:29N 53°49' E 008°07'815.8
2018-Apr-20 08:00N 53°44' E 008°16'816.9
2018-Apr-20 07:30N 53°38' E 008°26'4 7.8
2018-Apr-20 07:00N 53°35' E 008°31'0 0.0
2018-Apr-20 06:30N 53°35' E 008°31'0 0.0
2018-Apr-20 06:00N 53°35' E 008°31'0 0.0
2018-Apr-20 05:30N 53°35' E 008°31'0 0.0
2018-Apr-20 05:00N 53°35' E 008°31'0 0.0
2018-Apr-20 04:30N 53°35' E 008°31'0 0.0
2018-Apr-20 04:00N 53°35' E 008°31'0 0.0
2018-Apr-20 03:30N 53°35' E 008°31'0 0.0
2018-Apr-20 03:00N 53°35' E 008°31'0 0.0
2018-Apr-20 02:30N 53°35' E 008°31'0 0.0
2018-Apr-20 02:00N 53°35' E 008°31'0 0.0
2018-Apr-20 01:30N 53°35' E 008°31'0 0.0
2018-Apr-20 01:00N 53°35' E 008°31'0 0.0
2018-Apr-20 00:30N 53°35' E 008°31'0 0.0
2018-Apr-20 00:00N 53°35' E 008°31'0 0.0
2018-Apr-19 23:30N 53°35' E 008°31'0 0.0
2018-Apr-19 23:00N 53°35' E 008°31'0 0.0
2018-Apr-19 22:30N 53°35' E 008°31'0 0.0
2018-Apr-19 22:00N 53°35' E 008°31'0 0.0
2018-Apr-19 21:30N 53°35' E 008°31'0 0.0
2018-Apr-19 20:57N 53°35' E 008°31'0 0.0
2018-Apr-19 20:30N 53°35' E 008°31'0 0.0
2018-Apr-19 20:00N 53°35' E 008°31'0 0.0
2018-Apr-19 19:30N 53°35' E 008°31'0 0.0
2018-Apr-19 19:00N 53°35' E 008°31'0 0.0
2018-Apr-19 18:30N 53°35' E 008°31'0 0.0
2018-Apr-19 18:00N 53°35' E 008°31'0 0.0
2018-Apr-19 17:30N 53°35' E 008°31'0 0.0
2018-Apr-19 16:57N 53°35' E 008°31'0 0.0
2018-Apr-19 16:30N 53°35' E 008°31'0 0.0
2018-Apr-19 15:59N 53°35' E 008°31'0 0.0
2018-Apr-19 15:29N 53°35' E 008°31'0 0.0
2018-Apr-19 14:59N 53°35' E 008°31'0 0.0
2018-Apr-19 14:29N 53°35' E 008°31'0 0.1
2018-Apr-19 13:59N 53°35' E 008°31'0 0.1
2018-Apr-19 13:29N 53°35' E 008°31'0 0.0
2018-Apr-19 12:59N 53°35' E 008°31'0 0.0
2018-Apr-19 12:29N 53°35' E 008°31'0 0.0
2018-Apr-19 11:59N 53°35' E 008°31'0 0.0
2018-Apr-19 11:29N 53°35' E 008°31'0 0.0
2018-Apr-19 10:59N 53°35' E 008°31'0 0.0
2018-Apr-19 10:26N 53°35' E 008°31'0 0.0
2018-Apr-19 09:59N 53°35' E 008°31'0 0.1
2018-Apr-19 09:30N 53°35' E 008°31'2 4.8
2018-Apr-19 09:00N 53°37' E 008°28'612.6
2018-Apr-19 08:30N 53°41' E 008°21'613.0
2018-Apr-19 08:00N 53°45' E 008°12'612.4
2018-Apr-19 07:30N 53°50' E 008°05'612.2
2018-Apr-19 07:00N 53°52' E 007°55'3 5.9
2018-Apr-19 06:30N 53°54' E 007°52'0 0.0
2018-Apr-19 05:58N 53°54' E 007°52'0 0.0
2018-Apr-19 05:28N 53°54' E 007°52'0 0.0
2018-Apr-19 04:58N 53°54' E 007°52'0 0.0
2018-Apr-19 04:25N 53°54' E 007°52'0 0.0
2018-Apr-19 03:58N 53°54' E 007°52'0 0.0
2018-Apr-19 03:25N 53°54' E 007°52'0 0.0
2018-Apr-19 02:58N 53°54' E 007°52'0 0.0
2018-Apr-19 02:25N 53°54' E 007°52'0 0.0
2018-Apr-19 01:58N 53°54' E 007°52'0 0.0
2018-Apr-19 01:25N 53°54' E 007°52'0 0.2
2018-Apr-19 00:58N 53°54' E 007°52'0 0.1
2018-Apr-18 23:46N 53°54' E 007°52'0 0.0
2018-Apr-18 22:46N 53°54' E 007°52'0 0.0
2018-Apr-18 22:22N 53°54' E 007°52'0 0.0
2018-Apr-18 21:58N 53°54' E 007°52'0 0.0
2018-Apr-18 21:28N 53°54' E 007°52'0 0.1
2018-Apr-18 19:55N 53°54' E 007°52'0 0.0
2018-Apr-18 10:13N 53°54' E 007°52'0 0.0
2018-Apr-18 09:49N 53°54' E 007°52'0 0.0
2018-Apr-18 09:13N 53°54' E 007°52'0 0.0
2018-Apr-18 08:49N 53°54' E 007°52'0 0.1
2018-Apr-18 08:28N 53°54' E 007°52'0 0.1
2018-Apr-18 07:43N 53°54' E 007°52'0 0.1
2018-Apr-18 06:52N 53°54' E 007°52'0 0.1
2018-Apr-18 06:16N 53°54' E 007°52'0 0.0
2018-Apr-18 05:58N 53°54' E 007°52'0 0.0
2018-Apr-18 05:28N 53°54' E 007°52'0 0.0
2018-Apr-18 04:58N 53°54' E 007°52'0 0.0
2018-Apr-18 04:25N 53°54' E 007°52'0 0.0
2018-Apr-18 03:58N 53°54' E 007°52'0 0.0
2018-Apr-18 03:28N 53°54' E 007°52'0 0.0
2018-Apr-18 02:55N 53°54' E 007°52'0 0.0
2018-Apr-18 02:28N 53°54' E 007°52'0 0.1
2018-Apr-18 01:43N 53°54' E 007°52'0 0.1
2018-Apr-18 01:22N 53°54' E 007°52'0 0.1
2018-Apr-18 00:55N 53°54' E 007°52'0 0.1
2018-Apr-18 00:19N 53°54' E 007°52'0 0.1
2018-Apr-17 23:55N 53°54' E 007°52'0 0.2
2018-Apr-17 23:28N 53°54' E 007°52'0 0.3
2018-Apr-17 22:58N 53°54' E 007°52'1 2.3
2018-Apr-17 22:29N 53°55' E 007°50'4711.5
2018-Apr-17 18:25N 54°34' E 007°08'614.0
2018-Apr-17 18:00N 54°40' E 007°04'714.1
2018-Apr-17 17:31N 54°47' E 007°03'713.8
2018-Apr-17 17:00N 54°53' E 007°03'713.7
2018-Apr-17 16:30N 55°00' E 007°03'713.8
2018-Apr-17 16:00N 55°07' E 007°03'713.7
2018-Apr-17 15:30N 55°14' E 007°03'713.7
2018-Apr-17 15:01N 55°21' E 007°03'612.2
2018-Apr-17 14:30N 55°27' E 007°03'5 9.9
2018-Apr-17 14:00N 55°32' E 007°03'510.0
2018-Apr-17 13:31N 55°37' E 007°03'510.5
2018-Apr-17 13:00N 55°42' E 007°03'510.5
2018-Apr-17 12:30N 55°48' E 007°04'510.7
2018-Apr-17 12:00N 55°53' E 007°04'510.8
2018-Apr-17 11:30N 55°58' E 007°06'610.7
2018-Apr-17 10:58N 56°04' E 007°08'510.9
2018-Apr-17 10:30N 56°09' E 007°11'610.7
2018-Apr-17 09:59N 56°14' E 007°13'510.8
2018-Apr-17 09:29N 56°19' E 007°16'910.6
2018-Apr-17 08:35N 56°28' E 007°20'110.6
2018-Apr-17 08:30N 56°29' E 007°20'910.6
2018-Apr-17 07:41N 56°38' E 007°24'210.5
2018-Apr-17 07:30N 56°40' E 007°25'6610.7
2018-Apr-17 01:20N 57°43' E 007°56'411.8
2018-Apr-17 01:00N 57°47' E 007°58'611.6
2018-Apr-17 00:30N 57°53' E 008°00'611.4
2018-Apr-17 00:00N 57°58' E 008°03'511.0
2018-Apr-16 23:30N 58°04' E 008°05'510.6
2018-Apr-16 23:00N 58°08' E 007°60'1 1.1
2018-Apr-16 22:28N 58°08' E 007°59'0 0.0
2018-Apr-16 21:58N 58°08' E 007°59'0 0.0
2018-Apr-16 21:28N 58°08' E 007°59'0 0.0
2018-Apr-16 20:58N 58°08' E 007°59'0 0.0
2018-Apr-16 20:28N 58°08' E 007°59'0 0.0
2018-Apr-16 19:58N 58°08' E 007°59'0 0.0
2018-Apr-16 19:28N 58°08' E 007°59'0 0.0
2018-Apr-16 18:58N 58°08' E 007°59'0 0.0
2018-Apr-16 18:28N 58°08' E 007°59'0 0.0
2018-Apr-16 17:58N 58°08' E 007°59'0 0.0
2018-Apr-16 17:28N 58°08' E 007°59'0 0.0
2018-Apr-16 16:58N 58°08' E 007°59'0 0.0
2018-Apr-16 16:28N 58°08' E 007°59'0 0.0
2018-Apr-16 15:58N 58°08' E 007°59'0 0.0
2018-Apr-16 15:28N 58°08' E 007°59'0 0.0
2018-Apr-16 14:58N 58°08' E 007°59'0 0.0
2018-Apr-16 14:28N 58°08' E 007°59'0 0.0
2018-Apr-16 13:58N 58°08' E 007°59'0 0.0
2018-Apr-16 13:28N 58°08' E 007°59'1 1.2
2018-Apr-16 13:00N 58°08' E 007°59'510.0
2018-Apr-16 12:30N 58°04' E 008°06'612.3
2018-Apr-16 12:00N 58°03' E 008°17'713.5
2018-Apr-16 11:30N 58°03' E 008°30'5 9.9
2018-Apr-16 11:00N 58°02' E 008°39'30 9.1
2018-Apr-16 07:41N 58°23' E 009°20'2 9.5
2018-Apr-16 07:30N 58°25' E 009°23'5 9.5
2018-Apr-16 07:00N 58°28' E 009°28'5 9.7
2018-Apr-16 06:30N 58°32' E 009°34'5 9.4
2018-Apr-16 05:58N 58°37' E 009°38'4 9.4
2018-Apr-16 05:30N 58°41' E 009°40'5 9.8
2018-Apr-16 05:00N 58°46' E 009°42'5 9.4
2018-Apr-16 04:30N 58°50' E 009°44'510.5
2018-Apr-16 04:00N 58°55' E 009°47'510.7
2018-Apr-16 03:31N 58°55' E 009°57'611.6
2018-Apr-16 03:01N 58°59' E 010°05'3 6.1
2018-Apr-16 02:29N 59°02' E 010°02'0 0.0
2018-Apr-16 01:59N 59°02' E 010°02'0 0.0
2018-Apr-16 01:29N 59°02' E 010°02'0 0.0
2018-Apr-16 00:59N 59°02' E 010°02'0 0.0
2018-Apr-16 00:29N 59°02' E 010°02'0 0.0
2018-Apr-15 23:59N 59°02' E 010°02'0 0.0
2018-Apr-15 23:29N 59°02' E 010°02'0 0.0
2018-Apr-15 22:59N 59°02' E 010°02'0 0.0
2018-Apr-15 22:29N 59°02' E 010°02'0 0.0
2018-Apr-15 21:59N 59°02' E 010°02'0 0.0
2018-Apr-15 21:29N 59°02' E 010°02'0 0.0
2018-Apr-15 20:59N 59°02' E 010°02'0 0.0
2018-Apr-15 20:29N 59°02' E 010°02'0 0.0
2018-Apr-15 19:59N 59°02' E 010°02'0 0.0
2018-Apr-15 19:29N 59°02' E 010°02'0 0.0
2018-Apr-15 18:59N 59°02' E 010°02'0 0.0
2018-Apr-15 18:29N 59°02' E 010°02'0 0.0
2018-Apr-15 17:59N 59°02' E 010°02'0 0.0
2018-Apr-15 17:29N 59°02' E 010°02'0 0.0
2018-Apr-15 16:59N 59°02' E 010°02'0 0.0
2018-Apr-15 16:29N 59°02' E 010°02'0 0.0
2018-Apr-15 15:59N 59°02' E 010°02'0 0.0
2018-Apr-15 15:29N 59°02' E 010°02'0 0.0
2018-Apr-15 14:59N 59°02' E 010°02'0 0.0
2018-Apr-15 14:30N 59°02' E 010°02'1 2.6
2018-Apr-15 14:01N 59°01' E 010°03'611.8
2018-Apr-15 13:30N 58°57' E 010°12'714.7
2018-Apr-15 13:00N 58°58' E 010°26'815.1
2018-Apr-15 12:30N 59°01' E 010°40'714.8
2018-Apr-15 12:00N 59°01' E 010°54'611.2
2018-Apr-15 11:31N 59°06' E 010°58'5 8.9
2018-Apr-15 10:59N 59°11' E 010°57'0 0.1
2018-Apr-15 10:29N 59°11' E 010°57'0 0.0
2018-Apr-15 09:59N 59°11' E 010°57'0 0.0
2018-Apr-15 09:29N 59°11' E 010°57'0 0.0
2018-Apr-15 08:59N 59°11' E 010°57'0 0.0
2018-Apr-15 08:29N 59°11' E 010°57'0 0.0
2018-Apr-15 08:00N 59°11' E 010°57'0 0.0
2018-Apr-15 07:30N 59°11' E 010°57'0 0.0
2018-Apr-15 07:00N 59°11' E 010°57'0 0.0
2018-Apr-15 06:30N 59°11' E 010°57'0 0.0
2018-Apr-15 06:00N 59°11' E 010°57'0 0.0
2018-Apr-15 05:30N 59°11' E 010°57'0 0.0
2018-Apr-15 05:00N 59°11' E 010°57'0 0.0
2018-Apr-15 04:30N 59°11' E 010°57'0 0.0
2018-Apr-15 04:00N 59°11' E 010°57'0 0.0
2018-Apr-15 03:30N 59°11' E 010°57'0 0.0
2018-Apr-15 03:00N 59°11' E 010°57'0 0.0
2018-Apr-15 02:30N 59°11' E 010°57'0 0.0
2018-Apr-15 02:00N 59°11' E 010°57'0 0.0
2018-Apr-15 01:30N 59°11' E 010°57'0 0.0
2018-Apr-15 01:00N 59°11' E 010°57'0 0.0
2018-Apr-15 00:30N 59°11' E 010°57'0 0.0
2018-Apr-15 00:00N 59°11' E 010°57'0 0.0
2018-Apr-14 23:30N 59°11' E 010°57'0 0.0
2018-Apr-14 23:00N 59°11' E 010°57'0 0.0
2018-Apr-14 22:30N 59°11' E 010°57'0 0.0
2018-Apr-14 22:00N 59°11' E 010°57'0 0.0
2018-Apr-14 21:30N 59°11' E 010°57'0 0.0
2018-Apr-14 21:00N 59°11' E 010°57'0 0.0
2018-Apr-14 20:30N 59°11' E 010°57'2 4.5
2018-Apr-14 20:00N 59°09' E 010°58'611.1
2018-Apr-14 19:30N 59°03' E 010°58'4 8.5
2018-Apr-14 19:00N 59°03' E 010°50'713.8
2018-Apr-14 18:31N 59°09' E 010°46'714.2
2018-Apr-14 18:00N 59°16' E 010°42'713.3
2018-Apr-14 17:30N 59°23' E 010°38'3 5.2
2018-Apr-14 16:55N 59°26' E 010°39'0 0.0
2018-Apr-14 16:25N 59°26' E 010°39'0 0.0
2018-Apr-14 15:55N 59°26' E 010°39'0 0.0
2018-Apr-14 15:25N 59°26' E 010°39'0 0.0
2018-Apr-14 14:55N 59°26' E 010°39'0 0.0
2018-Apr-14 14:25N 59°26' E 010°39'0 0.0
2018-Apr-14 13:55N 59°26' E 010°39'0 0.0
2018-Apr-14 13:25N 59°26' E 010°39'0 0.0
2018-Apr-14 12:55N 59°26' E 010°39'0 0.0
2018-Apr-14 12:25N 59°26' E 010°39'0 0.0
2018-Apr-14 11:55N 59°26' E 010°39'0 0.0
2018-Apr-14 11:25N 59°26' E 010°39'0 0.0
2018-Apr-14 11:00N 59°26' E 010°39'0 0.0
2018-Apr-14 10:30N 59°26' E 010°39'0 0.0
2018-Apr-14 10:00N 59°26' E 010°39'0 0.0
2018-Apr-14 09:30N 59°26' E 010°39'0 0.0
2018-Apr-14 09:00N 59°26' E 010°39'0 0.2
2018-Apr-14 08:30N 59°26' E 010°39'2 3.3
2018-Apr-14 08:00N 59°24' E 010°37'611.5
2018-Apr-14 07:31N 59°19' E 010°37'714.5
2018-Apr-14 07:01N 59°11' E 010°39'714.0
2018-Apr-14 06:30N 59°05' E 010°44'4 7.8
2018-Apr-14 06:00N 59°01' E 010°44'611.0
2018-Apr-14 05:30N 58°57' E 010°36'611.9
2018-Apr-14 05:00N 58°53' E 010°28'713.4
2018-Apr-14 04:30N 58°47' E 010°20'713.9
2018-Apr-14 04:00N 58°42' E 010°12'713.7
2018-Apr-14 03:30N 58°36' E 010°04'713.6
2018-Apr-14 03:01N 58°31' E 009°56'714.0
2018-Apr-14 02:30N 58°25' E 009°49'4313.9
2018-Apr-13 23:26N 57°51' E 009°00'  

Dump ship's entire track history